sensor_id;sensor_type;location;lat;lon;timestamp;P1;durP1;ratioP1;P2;durP2;ratioP2
21122;SDS011;10719;48.130;11.630;2023-02-15T00:01:44;9.57;;;3.17;;
21122;SDS011;10719;48.130;11.630;2023-02-15T00:04:12;6.57;;;2.70;;
21122;SDS011;10719;48.130;11.630;2023-02-15T00:06:39;4.97;;;2.40;;
21122;SDS011;10719;48.130;11.630;2023-02-15T00:09:05;8.70;;;2.83;;
21122;SDS011;10719;48.130;11.630;2023-02-15T00:11:30;4.90;;;2.43;;
21122;SDS011;10719;48.130;11.630;2023-02-15T00:14:12;17.00;;;5.00;;
21122;SDS011;10719;48.130;11.630;2023-02-15T00:16:41;7.57;;;2.87;;
21122;SDS011;10719;48.130;11.630;2023-02-15T00:19:08;6.43;;;2.43;;
21122;SDS011;10719;48.130;11.630;2023-02-15T00:21:35;4.47;;;2.13;;
21122;SDS011;10719;48.130;11.630;2023-02-15T00:24:03;9.00;;;3.20;;
21122;SDS011;10719;48.130;11.630;2023-02-15T00:26:30;21.00;;;6.78;;
21122;SDS011;10719;48.130;11.630;2023-02-15T00:28:56;7.33;;;3.47;;
21122;SDS011;10719;48.130;11.630;2023-02-15T00:31:26;7.77;;;3.27;;
21122;SDS011;10719;48.130;11.630;2023-02-15T00:33:55;3.53;;;1.93;;
21122;SDS011;10719;48.130;11.630;2023-02-15T00:36:25;8.90;;;3.30;;
21122;SDS011;10719;48.130;11.630;2023-02-15T00:38:51;8.20;;;2.37;;
21122;SDS011;10719;48.130;11.630;2023-02-15T00:41:16;5.73;;;2.50;;
21122;SDS011;10719;48.130;11.630;2023-02-15T00:43:42;5.53;;;2.23;;
21122;SDS011;10719;48.130;11.630;2023-02-15T00:46:07;6.37;;;2.30;;
21122;SDS011;10719;48.130;11.630;2023-02-15T00:48:33;6.00;;;2.20;;
21122;SDS011;10719;48.130;11.630;2023-02-15T00:50:59;4.20;;;2.07;;
21122;SDS011;10719;48.130;11.630;2023-02-15T00:53:26;7.73;;;2.50;;
21122;SDS011;10719;48.130;11.630;2023-02-15T00:55:53;3.33;;;1.87;;
21122;SDS011;10719;48.130;11.630;2023-02-15T00:58:18;2.93;;;1.33;;
21122;SDS011;10719;48.130;11.630;2023-02-15T01:00:45;3.37;;;1.70;;
21122;SDS011;10719;48.130;11.630;2023-02-15T01:03:12;4.93;;;2.27;;
21122;SDS011;10719;48.130;11.630;2023-02-15T01:05:38;8.13;;;3.30;;
21122;SDS011;10719;48.130;11.630;2023-02-15T01:08:04;3.07;;;1.13;;
21122;SDS011;10719;48.130;11.630;2023-02-15T01:10:30;4.47;;;1.60;;
21122;SDS011;10719;48.130;11.630;2023-02-15T01:12:56;4.27;;;1.40;;
21122;SDS011;10719;48.130;11.630;2023-02-15T01:15:22;3.37;;;1.27;;
21122;SDS011;10719;48.130;11.630;2023-02-15T01:17:48;8.73;;;2.70;;
21122;SDS011;10719;48.130;11.630;2023-02-15T01:20:18;4.67;;;2.10;;
21122;SDS011;10719;48.130;11.630;2023-02-15T01:22:48;5.97;;;2.23;;
21122;SDS011;10719;48.130;11.630;2023-02-15T01:25:18;5.60;;;2.33;;
21122;SDS011;10719;48.130;11.630;2023-02-15T01:27:44;5.17;;;2.00;;
21122;SDS011;10719;48.130;11.630;2023-02-15T01:30:10;6.93;;;1.93;;
21122;SDS011;10719;48.130;11.630;2023-02-15T01:32:37;7.17;;;2.70;;
21122;SDS011;10719;48.130;11.630;2023-02-15T01:35:02;9.60;;;2.87;;
21122;SDS011;10719;48.130;11.630;2023-02-15T01:37:32;4.03;;;1.73;;
21122;SDS011;10719;48.130;11.630;2023-02-15T01:39:59;6.60;;;1.63;;
21122;SDS011;10719;48.130;11.630;2023-02-15T01:42:25;5.97;;;2.13;;
21122;SDS011;10719;48.130;11.630;2023-02-15T01:44:56;4.30;;;1.73;;
21122;SDS011;10719;48.130;11.630;2023-02-15T01:47:33;9.83;;;1.90;;
21122;SDS011;10719;48.130;11.630;2023-02-15T01:50:10;7.63;;;3.00;;
21122;SDS011;10719;48.130;11.630;2023-02-15T01:52:44;4.43;;;1.90;;
21122;SDS011;10719;48.130;11.630;2023-02-15T01:55:15;6.60;;;2.63;;
21122;SDS011;10719;48.130;11.630;2023-02-15T01:57:41;7.07;;;2.97;;
21122;SDS011;10719;48.130;11.630;2023-02-15T02:00:08;8.17;;;2.80;;
21122;SDS011;10719;48.130;11.630;2023-02-15T02:02:34;7.23;;;2.33;;
21122;SDS011;10719;48.130;11.630;2023-02-15T02:05:01;5.30;;;2.33;;
21122;SDS011;10719;48.130;11.630;2023-02-15T02:07:32;6.00;;;2.40;;
21122;SDS011;10719;48.130;11.630;2023-02-15T02:10:04;5.53;;;2.27;;
21122;SDS011;10719;48.130;11.630;2023-02-15T02:12:30;5.13;;;1.80;;
21122;SDS011;10719;48.130;11.630;2023-02-15T02:14:57;7.90;;;2.90;;
21122;SDS011;10719;48.130;11.630;2023-02-15T02:17:31;4.60;;;2.03;;
21122;SDS011;10719;48.130;11.630;2023-02-15T02:20:16;5.73;;;2.50;;
21122;SDS011;10719;48.130;11.630;2023-02-15T02:23:25;2.47;;;1.53;;
21122;SDS011;10719;48.130;11.630;2023-02-15T02:34:58;6.30;;;2.17;;
21122;SDS011;10719;48.130;11.630;2023-02-15T02:49:10;4.50;;;1.97;;
21122;SDS011;10719;48.130;11.630;2023-02-15T02:51:36;7.23;;;3.40;;
21122;SDS011;10719;48.130;11.630;2023-02-15T02:54:04;5.73;;;1.80;;
21122;SDS011;10719;48.130;11.630;2023-02-15T02:56:39;4.63;;;2.27;;
21122;SDS011;10719;48.130;11.630;2023-02-15T02:59:14;4.53;;;1.70;;
21122;SDS011;10719;48.130;11.630;2023-02-15T03:04:19;5.63;;;2.00;;
21122;SDS011;10719;48.130;11.630;2023-02-15T03:06:54;4.43;;;1.80;;
21122;SDS011;10719;48.130;11.630;2023-02-15T03:09:37;5.10;;;1.80;;
21122;SDS011;10719;48.130;11.630;2023-02-15T03:12:07;5.43;;;1.67;;
21122;SDS011;10719;48.130;11.630;2023-02-15T03:14:35;5.00;;;2.30;;
21122;SDS011;10719;48.130;11.630;2023-02-15T03:17:01;12.03;;;3.50;;
21122;SDS011;10719;48.130;11.630;2023-02-15T03:19:30;5.83;;;3.03;;
21122;SDS011;10719;48.130;11.630;2023-02-15T03:22:03;6.70;;;2.13;;
21122;SDS011;10719;48.130;11.630;2023-02-15T03:24:44;5.43;;;1.80;;
21122;SDS011;10719;48.130;11.630;2023-02-15T03:27:17;8.93;;;3.87;;
21122;SDS011;10719;48.130;11.630;2023-02-15T03:29:48;3.70;;;1.77;;
21122;SDS011;10719;48.130;11.630;2023-02-15T03:32:17;3.03;;;1.50;;
21122;SDS011;10719;48.130;11.630;2023-02-15T03:34:43;5.03;;;2.27;;
21122;SDS011;10719;48.130;11.630;2023-02-15T03:37:13;4.40;;;1.93;;
21122;SDS011;10719;48.130;11.630;2023-02-15T03:39:59;5.73;;;2.03;;
21122;SDS011;10719;48.130;11.630;2023-02-15T03:43:00;1.40;;;1.23;;
21122;SDS011;10719;48.130;11.630;2023-02-15T03:45:30;6.93;;;2.40;;
21122;SDS011;10719;48.130;11.630;2023-02-15T03:47:57;6.60;;;2.63;;
21122;SDS011;10719;48.130;11.630;2023-02-15T03:50:31;5.47;;;2.07;;
21122;SDS011;10719;48.130;11.630;2023-02-15T03:53:19;8.63;;;2.70;;
21122;SDS011;10719;48.130;11.630;2023-02-15T03:55:47;4.53;;;1.73;;
21122;SDS011;10719;48.130;11.630;2023-02-15T03:58:13;3.53;;;1.93;;
21122;SDS011;10719;48.130;11.630;2023-02-15T04:00:59;6.67;;;2.20;;
21122;SDS011;10719;48.130;11.630;2023-02-15T04:03:49;13.00;;;5.60;;
21122;SDS011;10719;48.130;11.630;2023-02-15T04:06:22;15.20;;;3.03;;
21122;SDS011;10719;48.130;11.630;2023-02-15T04:08:47;6.83;;;2.80;;
21122;SDS011;10719;48.130;11.630;2023-02-15T04:11:31;4.37;;;2.20;;
21122;SDS011;10719;48.130;11.630;2023-02-15T04:13:57;5.93;;;2.00;;
21122;SDS011;10719;48.130;11.630;2023-02-15T04:16:23;4.73;;;1.63;;
21122;SDS011;10719;48.130;11.630;2023-02-15T04:18:49;5.50;;;2.23;;
21122;SDS011;10719;48.130;11.630;2023-02-15T04:21:34;9.70;;;2.97;;
21122;SDS011;10719;48.130;11.630;2023-02-15T04:24:18;7.07;;;2.33;;
21122;SDS011;10719;48.130;11.630;2023-02-15T04:27:03;6.17;;;1.93;;
21122;SDS011;10719;48.130;11.630;2023-02-15T04:29:30;6.80;;;2.70;;
21122;SDS011;10719;48.130;11.630;2023-02-15T04:31:57;2.40;;;1.80;;
21122;SDS011;10719;48.130;11.630;2023-02-15T04:34:24;5.03;;;2.43;;
21122;SDS011;10719;48.130;11.630;2023-02-15T04:36:50;5.90;;;2.40;;
21122;SDS011;10719;48.130;11.630;2023-02-15T04:39:16;5.43;;;2.43;;
21122;SDS011;10719;48.130;11.630;2023-02-15T04:41:43;4.00;;;1.63;;
21122;SDS011;10719;48.130;11.630;2023-02-15T04:44:09;6.30;;;2.50;;
21122;SDS011;10719;48.130;11.630;2023-02-15T04:46:34;6.67;;;2.60;;
21122;SDS011;10719;48.130;11.630;2023-02-15T04:49:00;5.00;;;1.53;;
21122;SDS011;10719;48.130;11.630;2023-02-15T04:51:26;2.63;;;1.40;;
21122;SDS011;10719;48.130;11.630;2023-02-15T04:53:51;5.23;;;2.33;;
21122;SDS011;10719;48.130;11.630;2023-02-15T04:56:21;5.20;;;2.33;;
21122;SDS011;10719;48.130;11.630;2023-02-15T04:58:46;2.73;;;1.10;;
21122;SDS011;10719;48.130;11.630;2023-02-15T05:01:12;5.00;;;2.13;;
21122;SDS011;10719;48.130;11.630;2023-02-15T05:03:38;7.97;;;2.30;;
21122;SDS011;10719;48.130;11.630;2023-02-15T05:06:03;6.70;;;2.87;;
21122;SDS011;10719;48.130;11.630;2023-02-15T05:08:29;4.93;;;2.13;;
21122;SDS011;10719;48.130;11.630;2023-02-15T05:10:55;3.20;;;1.77;;
21122;SDS011;10719;48.130;11.630;2023-02-15T05:13:21;4.00;;;1.67;;
21122;SDS011;10719;48.130;11.630;2023-02-15T05:15:50;2.40;;;1.60;;
21122;SDS011;10719;48.130;11.630;2023-02-15T05:18:17;4.30;;;1.73;;
21122;SDS011;10719;48.130;11.630;2023-02-15T05:20:44;7.70;;;2.17;;
21122;SDS011;10719;48.130;11.630;2023-02-15T05:23:10;3.67;;;1.93;;
21122;SDS011;10719;48.130;11.630;2023-02-15T05:25:35;4.10;;;1.97;;
21122;SDS011;10719;48.130;11.630;2023-02-15T05:28:19;6.10;;;2.13;;
21122;SDS011;10719;48.130;11.630;2023-02-15T05:30:49;4.30;;;1.53;;
21122;SDS011;10719;48.130;11.630;2023-02-15T05:33:22;4.80;;;2.23;;
21122;SDS011;10719;48.130;11.630;2023-02-15T05:35:48;5.80;;;2.40;;
21122;SDS011;10719;48.130;11.630;2023-02-15T05:38:13;4.50;;;2.13;;
21122;SDS011;10719;48.130;11.630;2023-02-15T05:40:39;5.57;;;2.30;;
21122;SDS011;10719;48.130;11.630;2023-02-15T05:43:04;5.20;;;1.80;;
21122;SDS011;10719;48.130;11.630;2023-02-15T05:45:30;6.27;;;2.63;;
21122;SDS011;10719;48.130;11.630;2023-02-15T05:47:56;5.57;;;2.30;;
21122;SDS011;10719;48.130;11.630;2023-02-15T05:50:23;4.40;;;1.70;;
21122;SDS011;10719;48.130;11.630;2023-02-15T05:52:49;6.47;;;2.47;;
21122;SDS011;10719;48.130;11.630;2023-02-15T05:55:15;7.33;;;2.30;;
21122;SDS011;10719;48.130;11.630;2023-02-15T05:57:41;4.73;;;2.33;;
21122;SDS011;10719;48.130;11.630;2023-02-15T06:00:06;8.50;;;2.87;;
21122;SDS011;10719;48.130;11.630;2023-02-15T06:02:34;6.63;;;2.60;;
21122;SDS011;10719;48.130;11.630;2023-02-15T06:05:01;5.30;;;2.63;;
21122;SDS011;10719;48.130;11.630;2023-02-15T06:07:27;5.10;;;2.23;;
21122;SDS011;10719;48.130;11.630;2023-02-15T06:09:53;5.87;;;1.63;;
21122;SDS011;10719;48.130;11.630;2023-02-15T06:12:18;6.73;;;2.70;;
21122;SDS011;10719;48.130;11.630;2023-02-15T06:14:44;7.47;;;2.43;;
21122;SDS011;10719;48.130;11.630;2023-02-15T06:17:10;4.77;;;1.97;;
21122;SDS011;10719;48.130;11.630;2023-02-15T06:19:35;5.40;;;2.50;;
21122;SDS011;10719;48.130;11.630;2023-02-15T06:22:01;6.63;;;2.53;;
21122;SDS011;10719;48.130;11.630;2023-02-15T06:24:27;4.43;;;1.93;;
21122;SDS011;10719;48.130;11.630;2023-02-15T06:26:52;5.67;;;2.00;;
21122;SDS011;10719;48.130;11.630;2023-02-15T06:29:18;11.80;;;2.30;;
21122;SDS011;10719;48.130;11.630;2023-02-15T06:31:43;6.13;;;3.03;;
21122;SDS011;10719;48.130;11.630;2023-02-15T06:34:09;5.27;;;2.47;;
21122;SDS011;10719;48.130;11.630;2023-02-15T06:36:34;8.27;;;2.97;;
21122;SDS011;10719;48.130;11.630;2023-02-15T06:39:00;6.90;;;2.77;;
21122;SDS011;10719;48.130;11.630;2023-02-15T06:41:27;7.37;;;3.03;;
21122;SDS011;10719;48.130;11.630;2023-02-15T06:43:53;3.53;;;1.67;;
21122;SDS011;10719;48.130;11.630;2023-02-15T06:46:18;3.33;;;1.40;;
21122;SDS011;10719;48.130;11.630;2023-02-15T06:48:44;4.67;;;2.30;;
21122;SDS011;10719;48.130;11.630;2023-02-15T06:51:10;7.20;;;3.57;;
21122;SDS011;10719;48.130;11.630;2023-02-15T06:53:35;7.33;;;2.80;;
21122;SDS011;10719;48.130;11.630;2023-02-15T06:56:01;9.83;;;3.77;;
21122;SDS011;10719;48.130;11.630;2023-02-15T06:58:31;8.37;;;2.60;;
21122;SDS011;10719;48.130;11.630;2023-02-15T07:01:06;9.40;;;2.77;;
21122;SDS011;10719;48.130;11.630;2023-02-15T07:03:33;3.07;;;1.53;;
21122;SDS011;10719;48.130;11.630;2023-02-15T07:05:59;4.27;;;1.30;;
21122;SDS011;10719;48.130;11.630;2023-02-15T07:08:27;4.63;;;2.43;;
21122;SDS011;10719;48.130;11.630;2023-02-15T07:10:54;3.43;;;1.73;;
21122;SDS011;10719;48.130;11.630;2023-02-15T07:13:40;3.13;;;1.50;;
21122;SDS011;10719;48.130;11.630;2023-02-15T07:16:07;4.53;;;2.07;;
21122;SDS011;10719;48.130;11.630;2023-02-15T07:18:33;7.13;;;3.93;;
21122;SDS011;10719;48.130;11.630;2023-02-15T07:20:59;4.97;;;1.53;;
21122;SDS011;10719;48.130;11.630;2023-02-15T07:23:24;8.63;;;3.17;;
21122;SDS011;10719;48.130;11.630;2023-02-15T07:25:56;5.30;;;2.27;;
21122;SDS011;10719;48.130;11.630;2023-02-15T07:28:24;2.57;;;1.23;;
21122;SDS011;10719;48.130;11.630;2023-02-15T07:30:50;7.17;;;3.10;;
21122;SDS011;10719;48.130;11.630;2023-02-15T07:33:16;4.00;;;1.60;;
21122;SDS011;10719;48.130;11.630;2023-02-15T07:35:48;7.37;;;3.60;;
21122;SDS011;10719;48.130;11.630;2023-02-15T07:38:14;6.83;;;2.87;;
21122;SDS011;10719;48.130;11.630;2023-02-15T07:40:40;2.70;;;2.07;;
21122;SDS011;10719;48.130;11.630;2023-02-15T07:43:05;4.70;;;1.70;;
21122;SDS011;10719;48.130;11.630;2023-02-15T07:45:31;9.43;;;2.37;;
21122;SDS011;10719;48.130;11.630;2023-02-15T07:47:56;5.93;;;2.50;;
21122;SDS011;10719;48.130;11.630;2023-02-15T07:50:22;3.93;;;2.13;;
21122;SDS011;10719;48.130;11.630;2023-02-15T07:52:48;5.00;;;2.40;;
21122;SDS011;10719;48.130;11.630;2023-02-15T07:55:13;5.77;;;2.27;;
21122;SDS011;10719;48.130;11.630;2023-02-15T07:57:46;16.17;;;6.10;;
21122;SDS011;10719;48.130;11.630;2023-02-15T08:00:13;4.03;;;2.13;;
21122;SDS011;10719;48.130;11.630;2023-02-15T08:02:41;3.03;;;1.83;;
21122;SDS011;10719;48.130;11.630;2023-02-15T08:05:12;3.10;;;2.23;;
21122;SDS011;10719;48.130;11.630;2023-02-15T08:07:37;5.50;;;2.93;;
21122;SDS011;10719;48.130;11.630;2023-02-15T08:10:03;3.80;;;1.50;;
21122;SDS011;10719;48.130;11.630;2023-02-15T08:12:29;5.67;;;1.87;;
21122;SDS011;10719;48.130;11.630;2023-02-15T08:14:54;9.73;;;2.97;;
21122;SDS011;10719;48.130;11.630;2023-02-15T08:17:20;5.97;;;2.77;;
21122;SDS011;10719;48.130;11.630;2023-02-15T08:19:45;7.63;;;2.90;;
21122;SDS011;10719;48.130;11.630;2023-02-15T08:22:12;8.67;;;2.33;;
21122;SDS011;10719;48.130;11.630;2023-02-15T08:24:39;6.47;;;2.53;;
21122;SDS011;10719;48.130;11.630;2023-02-15T08:27:06;6.43;;;2.23;;
21122;SDS011;10719;48.130;11.630;2023-02-15T08:29:34;11.67;;;3.60;;
21122;SDS011;10719;48.130;11.630;2023-02-15T08:32:04;7.47;;;3.20;;
21122;SDS011;10719;48.130;11.630;2023-02-15T08:34:33;6.53;;;3.27;;
21122;SDS011;10719;48.130;11.630;2023-02-15T08:37:01;7.10;;;3.17;;
21122;SDS011;10719;48.130;11.630;2023-02-15T08:39:26;5.93;;;3.13;;
21122;SDS011;10719;48.130;11.630;2023-02-15T08:41:52;9.57;;;3.13;;
21122;SDS011;10719;48.130;11.630;2023-02-15T08:44:18;10.37;;;3.40;;
21122;SDS011;10719;48.130;11.630;2023-02-15T08:46:45;7.33;;;2.23;;
21122;SDS011;10719;48.130;11.630;2023-02-15T08:49:13;9.43;;;3.33;;
21122;SDS011;10719;48.130;11.630;2023-02-15T08:51:44;7.83;;;2.63;;
21122;SDS011;10719;48.130;11.630;2023-02-15T08:54:12;6.90;;;3.27;;
21122;SDS011;10719;48.130;11.630;2023-02-15T08:56:39;10.47;;;4.77;;
21122;SDS011;10719;48.130;11.630;2023-02-15T08:59:10;8.70;;;3.33;;
21122;SDS011;10719;48.130;11.630;2023-02-15T09:01:46;6.77;;;3.00;;
21122;SDS011;10719;48.130;11.630;2023-02-15T09:04:13;5.67;;;3.43;;
21122;SDS011;10719;48.130;11.630;2023-02-15T09:06:40;9.10;;;3.30;;
21122;SDS011;10719;48.130;11.630;2023-02-15T09:09:08;8.63;;;3.43;;
21122;SDS011;10719;48.130;11.630;2023-02-15T09:11:35;9.60;;;4.37;;
21122;SDS011;10719;48.130;11.630;2023-02-15T09:14:07;11.10;;;4.10;;
21122;SDS011;10719;48.130;11.630;2023-02-15T09:16:37;11.07;;;4.13;;
21122;SDS011;10719;48.130;11.630;2023-02-15T09:19:03;17.48;;;7.60;;
21122;SDS011;10719;48.130;11.630;2023-02-15T09:21:30;13.20;;;4.30;;
21122;SDS011;10719;48.130;11.630;2023-02-15T09:24:00;9.73;;;4.00;;
21122;SDS011;10719;48.130;11.630;2023-02-15T09:26:29;6.93;;;3.73;;
21122;SDS011;10719;48.130;11.630;2023-02-15T09:28:59;14.73;;;6.15;;
21122;SDS011;10719;48.130;11.630;2023-02-15T09:31:32;9.83;;;4.17;;
21122;SDS011;10719;48.130;11.630;2023-02-15T09:34:01;9.60;;;4.30;;
21122;SDS011;10719;48.130;11.630;2023-02-15T09:36:28;14.03;;;5.00;;
21122;SDS011;10719;48.130;11.630;2023-02-15T09:55:24;9.23;;;3.73;;
21122;SDS011;10719;48.130;11.630;2023-02-15T10:01:01;9.83;;;4.10;;
21122;SDS011;10719;48.130;11.630;2023-02-15T10:12:15;11.70;;;4.87;;
21122;SDS011;10719;48.130;11.630;2023-02-15T10:28:48;13.85;;;4.65;;
21122;SDS011;10719;48.130;11.630;2023-02-15T10:33:46;19.25;;;5.80;;
21122;SDS011;10719;48.130;11.630;2023-02-15T10:39:23;17.15;;;6.60;;
21122;SDS011;10719;48.130;11.630;2023-02-15T10:42:09;13.18;;;5.63;;
21122;SDS011;10719;48.130;11.630;2023-02-15T11:01:05;12.10;;;5.22;;
21122;SDS011;10719;48.130;11.630;2023-02-15T11:06:33;13.40;;;5.22;;
21122;SDS011;10719;48.130;11.630;2023-02-15T11:09:08;12.95;;;5.78;;
21122;SDS011;10719;48.130;11.630;2023-02-15T11:11:38;15.18;;;5.47;;
21122;SDS011;10719;48.130;11.630;2023-02-15T11:14:13;13.20;;;5.43;;
21122;SDS011;10719;48.130;11.630;2023-02-15T11:16:44;11.90;;;5.28;;
21122;SDS011;10719;48.130;11.630;2023-02-15T11:21:46;16.73;;;5.13;;
21122;SDS011;10719;48.130;11.630;2023-02-15T11:24:19;17.05;;;5.85;;
21122;SDS011;10719;48.130;11.630;2023-02-15T11:29:18;11.73;;;5.47;;
21122;SDS011;10719;48.130;11.630;2023-02-15T11:31:54;14.20;;;5.10;;
21122;SDS011;10719;48.130;11.630;2023-02-15T11:34:24;11.85;;;4.93;;
21122;SDS011;10719;48.130;11.630;2023-02-15T11:36:58;13.30;;;5.25;;
21122;SDS011;10719;48.130;11.630;2023-02-15T11:39:26;11.70;;;4.80;;
21122;SDS011;10719;48.130;11.630;2023-02-15T11:41:55;16.40;;;5.63;;
21122;SDS011;10719;48.130;11.630;2023-02-15T11:44:28;13.02;;;5.78;;
21122;SDS011;10719;48.130;11.630;2023-02-15T11:47:01;12.75;;;6.10;;
21122;SDS011;10719;48.130;11.630;2023-02-15T11:49:31;12.02;;;5.20;;
21122;SDS011;10719;48.130;11.630;2023-02-15T11:52:00;12.80;;;4.93;;
21122;SDS011;10719;48.130;11.630;2023-02-15T11:54:36;13.10;;;5.60;;
21122;SDS011;10719;48.130;11.630;2023-02-15T11:57:11;10.25;;;4.80;;
21122;SDS011;10719;48.130;11.630;2023-02-15T11:59:37;14.93;;;4.30;;
21122;SDS011;10719;48.130;11.630;2023-02-15T12:02:15;11.88;;;4.85;;
21122;SDS011;10719;48.130;11.630;2023-02-15T12:04:44;14.57;;;5.22;;
21122;SDS011;10719;48.130;11.630;2023-02-15T12:07:28;10.85;;;4.05;;
21122;SDS011;10719;48.130;11.630;2023-02-15T12:10:10;14.77;;;5.43;;
21122;SDS011;10719;48.130;11.630;2023-02-15T12:13:10;17.90;;;5.68;;
21122;SDS011;10719;48.130;11.630;2023-02-15T12:15:38;11.73;;;4.93;;
21122;SDS011;10719;48.130;11.630;2023-02-15T12:18:19;16.35;;;5.07;;
21122;SDS011;10719;48.130;11.630;2023-02-15T12:21:02;11.60;;;4.97;;
21122;SDS011;10719;48.130;11.630;2023-02-15T12:23:30;14.00;;;4.95;;
21122;SDS011;10719;48.130;11.630;2023-02-15T12:25:57;14.38;;;5.32;;
21122;SDS011;10719;48.130;11.630;2023-02-15T12:28:31;14.85;;;5.03;;
21122;SDS011;10719;48.130;11.630;2023-02-15T12:31:00;12.95;;;5.28;;
21122;SDS011;10719;48.130;11.630;2023-02-15T12:33:35;11.07;;;4.53;;
21122;SDS011;10719;48.130;11.630;2023-02-15T12:38:36;14.50;;;5.13;;
21122;SDS011;10719;48.130;11.630;2023-02-15T12:41:03;12.85;;;4.85;;
21122;SDS011;10719;48.130;11.630;2023-02-15T12:43:46;15.35;;;5.63;;
21122;SDS011;10719;48.130;11.630;2023-02-15T12:46:25;10.77;;;4.65;;
21122;SDS011;10719;48.130;11.630;2023-02-15T12:54:26;12.63;;;5.15;;
21122;SDS011;10719;48.130;11.630;2023-02-15T12:56:59;12.20;;;5.35;;
21122;SDS011;10719;48.130;11.630;2023-02-15T12:59:57;12.55;;;4.53;;
21122;SDS011;10719;48.130;11.630;2023-02-15T13:02:34;12.60;;;4.95;;
21122;SDS011;10719;48.130;11.630;2023-02-15T13:07:44;17.73;;;4.82;;
21122;SDS011;10719;48.130;11.630;2023-02-15T13:10:25;12.63;;;5.03;;
21122;SDS011;10719;48.130;11.630;2023-02-15T13:12:56;15.30;;;5.40;;
21122;SDS011;10719;48.130;11.630;2023-02-15T13:17:57;12.48;;;5.65;;
21122;SDS011;10719;48.130;11.630;2023-02-15T13:20:25;11.32;;;4.97;;
21122;SDS011;10719;48.130;11.630;2023-02-15T13:22:55;14.30;;;5.30;;
21122;SDS011;10719;48.130;11.630;2023-02-15T13:25:37;12.35;;;4.75;;
21122;SDS011;10719;48.130;11.630;2023-02-15T13:28:11;14.38;;;5.25;;
21122;SDS011;10719;48.130;11.630;2023-02-15T13:30:42;13.10;;;5.13;;
21122;SDS011;10719;48.130;11.630;2023-02-15T13:33:13;11.77;;;5.22;;
21122;SDS011;10719;48.130;11.630;2023-02-15T13:35:42;15.68;;;5.60;;
21122;SDS011;10719;48.130;11.630;2023-02-15T13:38:35;15.60;;;5.50;;
21122;SDS011;10719;48.130;11.630;2023-02-15T13:41:12;14.63;;;5.03;;
21122;SDS011;10719;48.130;11.630;2023-02-15T13:49:38;12.73;;;4.80;;
21122;SDS011;10719;48.130;11.630;2023-02-15T13:52:24;15.38;;;5.18;;
21122;SDS011;10719;48.130;11.630;2023-02-15T13:54:59;12.75;;;5.25;;
21122;SDS011;10719;48.130;11.630;2023-02-15T14:06:02;12.63;;;5.20;;
21122;SDS011;10719;48.130;11.630;2023-02-15T14:08:56;16.90;;;5.47;;
21122;SDS011;10719;48.130;11.630;2023-02-15T14:19:51;13.85;;;5.25;;
21122;SDS011;10719;48.130;11.630;2023-02-15T14:27:52;16.00;;;5.97;;
21122;SDS011;10719;48.130;11.630;2023-02-15T14:30:39;13.63;;;5.25;;
21122;SDS011;10719;48.130;11.630;2023-02-15T14:33:08;16.08;;;5.82;;
21122;SDS011;10719;48.130;11.630;2023-02-15T14:35:40;13.50;;;5.65;;
21122;SDS011;10719;48.130;11.630;2023-02-15T14:38:13;13.88;;;5.90;;
21122;SDS011;10719;48.130;11.630;2023-02-15T14:40:51;16.30;;;7.17;;
21122;SDS011;10719;48.130;11.630;2023-02-15T14:49:14;15.38;;;5.68;;
21122;SDS011;10719;48.130;11.630;2023-02-15T14:56:45;14.68;;;6.05;;
21122;SDS011;10719;48.130;11.630;2023-02-15T15:01:39;22.35;;;6.15;;
21122;SDS011;10719;48.130;11.630;2023-02-15T15:04:13;14.07;;;6.05;;
21122;SDS011;10719;48.130;11.630;2023-02-15T15:06:54;13.77;;;5.90;;
21122;SDS011;10719;48.130;11.630;2023-02-15T15:09:29;12.75;;;6.25;;
21122;SDS011;10719;48.130;11.630;2023-02-15T15:14:43;15.85;;;6.47;;
21122;SDS011;10719;48.130;11.630;2023-02-15T15:19:57;13.85;;;5.63;;
21122;SDS011;10719;48.130;11.630;2023-02-15T15:22:39;16.42;;;5.82;;
21122;SDS011;10719;48.130;11.630;2023-02-15T15:25:11;12.57;;;5.07;;
21122;SDS011;10719;48.130;11.630;2023-02-15T15:27:56;14.88;;;6.28;;
21122;SDS011;10719;48.130;11.630;2023-02-15T15:32:49;17.88;;;5.32;;
21122;SDS011;10719;48.130;11.630;2023-02-15T15:43:31;14.32;;;6.63;;
21122;SDS011;10719;48.130;11.630;2023-02-15T15:46:50;15.25;;;6.28;;
21122;SDS011;10719;48.130;11.630;2023-02-15T15:49:10;12.63;;;5.05;;
21122;SDS011;10719;48.130;11.630;2023-02-15T15:51:40;14.25;;;5.00;;
21122;SDS011;10719;48.130;11.630;2023-02-15T15:54:25;16.10;;;5.90;;
21122;SDS011;10719;48.130;11.630;2023-02-15T15:56:56;10.75;;;4.25;;
21122;SDS011;10719;48.130;11.630;2023-02-15T15:59:26;14.60;;;5.28;;
21122;SDS011;10719;48.130;11.630;2023-02-15T16:01:54;19.17;;;8.20;;
21122;SDS011;10719;48.130;11.630;2023-02-15T16:04:31;15.25;;;5.72;;
21122;SDS011;10719;48.130;11.630;2023-02-15T16:07:01;11.98;;;5.40;;
21122;SDS011;10719;48.130;11.630;2023-02-15T16:09:41;12.75;;;4.85;;
21122;SDS011;10719;48.130;11.630;2023-02-15T16:12:19;12.27;;;4.47;;
21122;SDS011;10719;48.130;11.630;2023-02-15T16:14:45;11.95;;;4.90;;
21122;SDS011;10719;48.130;11.630;2023-02-15T16:17:19;14.85;;;4.55;;
21122;SDS011;10719;48.130;11.630;2023-02-15T16:19:48;14.55;;;5.50;;
21122;SDS011;10719;48.130;11.630;2023-02-15T16:22:18;10.27;;;3.88;;
21122;SDS011;10719;48.130;11.630;2023-02-15T16:30:23;11.73;;;4.88;;
21122;SDS011;10719;48.130;11.630;2023-02-15T16:32:52;17.83;;;6.20;;
21122;SDS011;10719;48.130;11.630;2023-02-15T16:36:01;15.67;;;5.33;;
21122;SDS011;10719;48.130;11.630;2023-02-15T16:41:12;12.90;;;4.50;;
21122;SDS011;10719;48.130;11.630;2023-02-15T16:43:52;12.60;;;3.73;;
21122;SDS011;10719;48.130;11.630;2023-02-15T16:46:27;14.93;;;4.50;;
21122;SDS011;10719;48.130;11.630;2023-02-15T16:48:59;9.67;;;3.53;;
21122;SDS011;10719;48.130;11.630;2023-02-15T16:51:29;11.27;;;4.60;;
21122;SDS011;10719;48.130;11.630;2023-02-15T16:54:00;13.20;;;4.80;;
21122;SDS011;10719;48.130;11.630;2023-02-15T16:56:39;10.50;;;4.53;;
21122;SDS011;10719;48.130;11.630;2023-02-15T16:59:13;12.27;;;5.30;;
21122;SDS011;10719;48.130;11.630;2023-02-15T17:02:21;11.63;;;5.27;;
21122;SDS011;10719;48.130;11.630;2023-02-15T17:05:00;17.17;;;4.80;;
21122;SDS011;10719;48.130;11.630;2023-02-15T17:07:26;24.52;;;10.52;;
21122;SDS011;10719;48.130;11.630;2023-02-15T17:09:53;16.80;;;7.33;;
21122;SDS011;10719;48.130;11.630;2023-02-15T17:17:54;11.33;;;4.40;;
21122;SDS011;10719;48.130;11.630;2023-02-15T17:20:22;26.95;;;10.23;;
21122;SDS011;10719;48.130;11.630;2023-02-15T17:22:49;15.20;;;5.67;;
21122;SDS011;10719;48.130;11.630;2023-02-15T17:25:23;16.27;;;5.70;;
21122;SDS011;10719;48.130;11.630;2023-02-15T17:27:55;14.07;;;5.03;;
21122;SDS011;10719;48.130;11.630;2023-02-15T17:30:31;13.73;;;4.87;;
21122;SDS011;10719;48.130;11.630;2023-02-15T17:33:00;13.93;;;4.60;;
21122;SDS011;10719;48.130;11.630;2023-02-15T17:35:28;15.70;;;4.97;;
21122;SDS011;10719;48.130;11.630;2023-02-15T17:38:06;13.13;;;4.73;;
21122;SDS011;10719;48.130;11.630;2023-02-15T17:40:41;11.97;;;5.30;;
21122;SDS011;10719;48.130;11.630;2023-02-15T17:43:06;9.07;;;3.37;;
21122;SDS011;10719;48.130;11.630;2023-02-15T17:45:34;9.87;;;4.03;;
21122;SDS011;10719;48.130;11.630;2023-02-15T17:48:02;14.80;;;3.83;;
21122;SDS011;10719;48.130;11.630;2023-02-15T17:50:29;15.83;;;5.87;;